Terminal Aerodrome Forecast
Issued by NWS

Home | Current Version | Previous Version | Text Only | Print | Product List | Glossary On
Versions: 1 2 3 4 5 6 7 8 9 10 11 12 13 14
000
FTUS41 KCAR 212300 RRA
TAFPQI
TAF
KPQI 212349Z 2200/2224 18011G18KT P6SM SCT025 BKN070
     FM220200 17009KT P6SM SCT010 BKN025
     FM220400 17008KT P6SM BKN015
     FM220600 16006KT P6SM OVC007
     FM220900 19005KT 3SM -SHRA OVC003
     FM221100 24010KT P6SM BKN007
     FM221400 26010KT P6SM BKN015
     FM221700 27011KT P6SM BKN035
      AMD LTD TO CLD VIS AND WIND=

USA.gov is the U.S. government's official web portal to all federal, state and local government web resources and services.